sensor_id;sensor_type;location;lat;lon;timestamp;temperature;humidity
7700;DHT22;3892;47.794;19.126;2022-09-12T00:01:16;21.60;56.00
7700;DHT22;3892;47.794;19.126;2022-09-12T00:03:44;21.60;56.20
7700;DHT22;3892;47.794;19.126;2022-09-12T00:06:14;21.70;57.20
7700;DHT22;3892;47.794;19.126;2022-09-12T00:08:41;21.70;51.70
7700;DHT22;3892;47.794;19.126;2022-09-12T00:11:09;21.70;49.50
7700;DHT22;3892;47.794;19.126;2022-09-12T00:13:39;21.70;49.50
7700;DHT22;3892;47.794;19.126;2022-09-12T00:16:06;21.70;50.10
7700;DHT22;3892;47.794;19.126;2022-09-12T00:18:33;21.70;48.70
7700;DHT22;3892;47.794;19.126;2022-09-12T00:21:01;21.70;48.80
7700;DHT22;3892;47.794;19.126;2022-09-12T00:23:29;21.70;48.40
7700;DHT22;3892;47.794;19.126;2022-09-12T00:25:56;21.70;48.50
7700;DHT22;3892;47.794;19.126;2022-09-12T00:28:23;21.70;48.10
7700;DHT22;3892;47.794;19.126;2022-09-12T00:30:51;21.70;48.20
7700;DHT22;3892;47.794;19.126;2022-09-12T00:33:18;21.70;48.40
7700;DHT22;3892;47.794;19.126;2022-09-12T00:35:46;21.80;47.90
7700;DHT22;3892;47.794;19.126;2022-09-12T00:38:15;21.80;47.90
7700;DHT22;3892;47.794;19.126;2022-09-12T00:40:43;21.70;47.70
7700;DHT22;3892;47.794;19.126;2022-09-12T00:43:12;21.70;47.70
7700;DHT22;3892;47.794;19.126;2022-09-12T00:45:40;21.70;47.70
7700;DHT22;3892;47.794;19.126;2022-09-12T00:48:15;21.70;48.00
7700;DHT22;3892;47.794;19.126;2022-09-12T00:50:44;21.70;47.70
7700;DHT22;3892;47.794;19.126;2022-09-12T00:53:10;21.70;47.40
7700;DHT22;3892;47.794;19.126;2022-09-12T00:55:39;21.70;47.80
7700;DHT22;3892;47.794;19.126;2022-09-12T00:58:09;21.70;47.90
7700;DHT22;3892;47.794;19.126;2022-09-12T01:00:38;21.60;47.70
7700;DHT22;3892;47.794;19.126;2022-09-12T01:03:07;21.70;47.20
7700;DHT22;3892;47.794;19.126;2022-09-12T01:05:38;21.70;47.30
7700;DHT22;3892;47.794;19.126;2022-09-12T01:08:08;21.60;47.40
7700;DHT22;3892;47.794;19.126;2022-09-12T01:10:37;21.50;47.40
7700;DHT22;3892;47.794;19.126;2022-09-12T01:13:06;21.60;47.90
7700;DHT22;3892;47.794;19.126;2022-09-12T01:15:36;21.60;47.50
7700;DHT22;3892;47.794;19.126;2022-09-12T01:18:13;21.50;47.20
7700;DHT22;3892;47.794;19.126;2022-09-12T01:21:05;21.60;47.60
7700;DHT22;3892;47.794;19.126;2022-09-12T01:24:02;21.50;47.80
7700;DHT22;3892;47.794;19.126;2022-09-12T01:26:54;21.60;47.40
7700;DHT22;3892;47.794;19.126;2022-09-12T01:29:49;21.60;47.60
7700;DHT22;3892;47.794;19.126;2022-09-12T01:32:27;21.60;47.60
7700;DHT22;3892;47.794;19.126;2022-09-12T01:35:03;21.60;47.30
7700;DHT22;3892;47.794;19.126;2022-09-12T01:37:39;21.50;47.20
7700;DHT22;3892;47.794;19.126;2022-09-12T01:40:11;21.50;47.10
7700;DHT22;3892;47.794;19.126;2022-09-12T01:42:44;21.50;47.10
7700;DHT22;3892;47.794;19.126;2022-09-12T01:45:20;21.40;47.00
7700;DHT22;3892;47.794;19.126;2022-09-12T01:47:55;21.40;47.00
7700;DHT22;3892;47.794;19.126;2022-09-12T01:50:27;21.30;47.60
7700;DHT22;3892;47.794;19.126;2022-09-12T01:53:00;21.30;47.30
7700;DHT22;3892;47.794;19.126;2022-09-12T01:55:30;21.20;47.50
7700;DHT22;3892;47.794;19.126;2022-09-12T01:58:03;21.20;47.60
7700;DHT22;3892;47.794;19.126;2022-09-12T02:00:33;21.30;47.20
7700;DHT22;3892;47.794;19.126;2022-09-12T02:03:07;21.30;47.70
7700;DHT22;3892;47.794;19.126;2022-09-12T02:05:37;21.20;47.30
7700;DHT22;3892;47.794;19.126;2022-09-12T02:08:08;21.20;47.20
7700;DHT22;3892;47.794;19.126;2022-09-12T02:10:41;21.30;47.70
7700;DHT22;3892;47.794;19.126;2022-09-12T02:13:13;21.30;47.80
7700;DHT22;3892;47.794;19.126;2022-09-12T02:15:44;21.30;48.90
7700;DHT22;3892;47.794;19.126;2022-09-12T02:18:15;21.30;47.50
7700;DHT22;3892;47.794;19.126;2022-09-12T02:20:46;21.30;47.50
7700;DHT22;3892;47.794;19.126;2022-09-12T02:23:18;21.30;47.40
7700;DHT22;3892;47.794;19.126;2022-09-12T02:25:49;21.30;47.50
7700;DHT22;3892;47.794;19.126;2022-09-12T02:28:20;21.20;47.40
7700;DHT22;3892;47.794;19.126;2022-09-12T02:30:53;21.20;47.80
7700;DHT22;3892;47.794;19.126;2022-09-12T02:33:26;21.20;47.70
7700;DHT22;3892;47.794;19.126;2022-09-12T02:35:59;21.20;48.20
7700;DHT22;3892;47.794;19.126;2022-09-12T02:38:34;21.20;48.30
7700;DHT22;3892;47.794;19.126;2022-09-12T02:41:03;21.20;48.40
7700;DHT22;3892;47.794;19.126;2022-09-12T02:43:30;21.20;49.40
7700;DHT22;3892;47.794;19.126;2022-09-12T02:45:57;21.00;48.50
7700;DHT22;3892;47.794;19.126;2022-09-12T02:48:27;21.10;47.80
7700;DHT22;3892;47.794;19.126;2022-09-12T02:50:55;21.10;49.00
7700;DHT22;3892;47.794;19.126;2022-09-12T02:53:24;21.10;49.20
7700;DHT22;3892;47.794;19.126;2022-09-12T02:55:51;21.10;49.00
7700;DHT22;3892;47.794;19.126;2022-09-12T02:58:23;21.10;48.60
7700;DHT22;3892;47.794;19.126;2022-09-12T03:00:56;21.00;49.50
7700;DHT22;3892;47.794;19.126;2022-09-12T03:03:44;21.10;49.00
7700;DHT22;3892;47.794;19.126;2022-09-12T03:06:22;21.10;48.70
7700;DHT22;3892;47.794;19.126;2022-09-12T03:09:01;21.10;49.70
7700;DHT22;3892;47.794;19.126;2022-09-12T03:11:48;21.00;50.00
7700;DHT22;3892;47.794;19.126;2022-09-12T03:14:30;21.10;49.70
7700;DHT22;3892;47.794;19.126;2022-09-12T03:17:08;21.10;50.10
7700;DHT22;3892;47.794;19.126;2022-09-12T03:19:47;21.10;48.90
7700;DHT22;3892;47.794;19.126;2022-09-12T03:22:22;21.10;48.40
7700;DHT22;3892;47.794;19.126;2022-09-12T03:24:54;21.10;48.90
7700;DHT22;3892;47.794;19.126;2022-09-12T03:27:27;21.20;49.20
7700;DHT22;3892;47.794;19.126;2022-09-12T03:29:55;21.20;49.80
7700;DHT22;3892;47.794;19.126;2022-09-12T03:32:40;21.30;49.30
7700;DHT22;3892;47.794;19.126;2022-09-12T03:35:09;21.30;49.50
7700;DHT22;3892;47.794;19.126;2022-09-12T03:37:37;21.30;49.10
7700;DHT22;3892;47.794;19.126;2022-09-12T03:40:05;21.40;48.40
7700;DHT22;3892;47.794;19.126;2022-09-12T03:42:32;21.40;48.60
7700;DHT22;3892;47.794;19.126;2022-09-12T03:44:59;21.40;49.30
7700;DHT22;3892;47.794;19.126;2022-09-12T03:47:26;21.40;49.20
7700;DHT22;3892;47.794;19.126;2022-09-12T03:49:53;21.40;48.30
7700;DHT22;3892;47.794;19.126;2022-09-12T03:52:21;21.50;49.80
7700;DHT22;3892;47.794;19.126;2022-09-12T03:54:48;21.40;47.60
7700;DHT22;3892;47.794;19.126;2022-09-12T03:57:15;21.40;48.10
7700;DHT22;3892;47.794;19.126;2022-09-12T03:59:41;21.40;49.00
7700;DHT22;3892;47.794;19.126;2022-09-12T04:02:08;21.50;47.90
7700;DHT22;3892;47.794;19.126;2022-09-12T04:04:37;21.50;48.70
7700;DHT22;3892;47.794;19.126;2022-09-12T04:07:06;21.50;47.80
7700;DHT22;3892;47.794;19.126;2022-09-12T04:09:34;21.50;49.60
7700;DHT22;3892;47.794;19.126;2022-09-12T04:12:01;21.40;47.50
7700;DHT22;3892;47.794;19.126;2022-09-12T04:14:28;21.40;48.60
7700;DHT22;3892;47.794;19.126;2022-09-12T04:16:55;21.30;48.20
7700;DHT22;3892;47.794;19.126;2022-09-12T04:19:22;21.30;48.30
7700;DHT22;3892;47.794;19.126;2022-09-12T04:21:49;21.30;48.90
7700;DHT22;3892;47.794;19.126;2022-09-12T04:24:16;21.30;49.80
7700;DHT22;3892;47.794;19.126;2022-09-12T04:26:44;21.30;48.90
7700;DHT22;3892;47.794;19.126;2022-09-12T04:29:11;21.30;48.30
7700;DHT22;3892;47.794;19.126;2022-09-12T04:31:39;21.20;47.50
7700;DHT22;3892;47.794;19.126;2022-09-12T04:34:06;21.30;49.10
7700;DHT22;3892;47.794;19.126;2022-09-12T04:36:34;21.20;49.00
7700;DHT22;3892;47.794;19.126;2022-09-12T04:39:02;21.20;47.80
7700;DHT22;3892;47.794;19.126;2022-09-12T04:41:30;21.30;47.90
7700;DHT22;3892;47.794;19.126;2022-09-12T04:44:02;21.30;48.20
7700;DHT22;3892;47.794;19.126;2022-09-12T04:46:34;21.30;48.60
7700;DHT22;3892;47.794;19.126;2022-09-12T04:49:02;21.40;48.30
7700;DHT22;3892;47.794;19.126;2022-09-12T04:51:30;21.40;47.70
7700;DHT22;3892;47.794;19.126;2022-09-12T04:54:00;21.40;47.80
7700;DHT22;3892;47.794;19.126;2022-09-12T04:56:29;21.40;48.00
7700;DHT22;3892;47.794;19.126;2022-09-12T04:58:56;21.40;48.00
7700;DHT22;3892;47.794;19.126;2022-09-12T05:01:28;21.30;48.60
7700;DHT22;3892;47.794;19.126;2022-09-12T05:03:57;21.40;48.10
7700;DHT22;3892;47.794;19.126;2022-09-12T05:06:26;21.40;47.80
7700;DHT22;3892;47.794;19.126;2022-09-12T05:08:54;21.30;47.50
7700;DHT22;3892;47.794;19.126;2022-09-12T05:11:24;21.30;48.20
7700;DHT22;3892;47.794;19.126;2022-09-12T05:13:51;21.20;47.50
7700;DHT22;3892;47.794;19.126;2022-09-12T05:16:18;21.20;47.30
7700;DHT22;3892;47.794;19.126;2022-09-12T05:18:47;21.20;48.60
7700;DHT22;3892;47.794;19.126;2022-09-12T05:21:16;21.20;47.30
7700;DHT22;3892;47.794;19.126;2022-09-12T05:23:49;21.20;47.40
7700;DHT22;3892;47.794;19.126;2022-09-12T05:26:16;21.10;47.40
7700;DHT22;3892;47.794;19.126;2022-09-12T05:28:45;21.10;48.10
7700;DHT22;3892;47.794;19.126;2022-09-12T05:31:14;21.10;48.40
7700;DHT22;3892;47.794;19.126;2022-09-12T05:33:43;21.10;47.90
7700;DHT22;3892;47.794;19.126;2022-09-12T05:36:13;21.10;47.60
7700;DHT22;3892;47.794;19.126;2022-09-12T05:38:40;21.10;49.00
7700;DHT22;3892;47.794;19.126;2022-09-12T05:41:09;21.10;47.90
7700;DHT22;3892;47.794;19.126;2022-09-12T05:43:39;21.10;47.70
7700;DHT22;3892;47.794;19.126;2022-09-12T05:46:09;21.10;47.80
7700;DHT22;3892;47.794;19.126;2022-09-12T05:48:38;21.10;47.90
7700;DHT22;3892;47.794;19.126;2022-09-12T05:51:08;21.10;48.30
7700;DHT22;3892;47.794;19.126;2022-09-12T05:53:38;21.10;47.80
7700;DHT22;3892;47.794;19.126;2022-09-12T05:56:09;21.00;48.20
7700;DHT22;3892;47.794;19.126;2022-09-12T05:58:38;21.00;49.90
7700;DHT22;3892;47.794;19.126;2022-09-12T06:01:07;21.00;49.00
7700;DHT22;3892;47.794;19.126;2022-09-12T06:03:38;21.00;48.10
7700;DHT22;3892;47.794;19.126;2022-09-12T06:06:06;21.00;49.10
7700;DHT22;3892;47.794;19.126;2022-09-12T06:08:35;21.10;48.50
7700;DHT22;3892;47.794;19.126;2022-09-12T06:11:04;21.10;48.20
7700;DHT22;3892;47.794;19.126;2022-09-12T06:13:32;21.20;48.00
7700;DHT22;3892;47.794;19.126;2022-09-12T06:16:03;21.20;47.90
7700;DHT22;3892;47.794;19.126;2022-09-12T06:18:31;21.20;48.70
7700;DHT22;3892;47.794;19.126;2022-09-12T06:21:01;21.30;48.20
7700;DHT22;3892;47.794;19.126;2022-09-12T06:23:28;21.20;48.20
7700;DHT22;3892;47.794;19.126;2022-09-12T06:25:56;21.20;47.80
7700;DHT22;3892;47.794;19.126;2022-09-12T06:28:23;21.20;48.60
7700;DHT22;3892;47.794;19.126;2022-09-12T06:30:50;21.20;48.90
7700;DHT22;3892;47.794;19.126;2022-09-12T06:33:21;21.20;49.20
7700;DHT22;3892;47.794;19.126;2022-09-12T06:35:50;21.20;48.10
7700;DHT22;3892;47.794;19.126;2022-09-12T06:38:20;21.20;48.20
7700;DHT22;3892;47.794;19.126;2022-09-12T06:40:47;21.20;48.30
7700;DHT22;3892;47.794;19.126;2022-09-12T06:43:15;21.30;48.90
7700;DHT22;3892;47.794;19.126;2022-09-12T06:45:49;21.30;48.20
7700;DHT22;3892;47.794;19.126;2022-09-12T06:48:19;21.40;48.20
7700;DHT22;3892;47.794;19.126;2022-09-12T06:50:55;21.40;50.00
7700;DHT22;3892;47.794;19.126;2022-09-12T06:53:23;21.50;50.20
7700;DHT22;3892;47.794;19.126;2022-09-12T06:55:55;21.60;48.70
7700;DHT22;3892;47.794;19.126;2022-09-12T06:58:24;21.60;50.30
7700;DHT22;3892;47.794;19.126;2022-09-12T07:00:51;21.70;50.90
7700;DHT22;3892;47.794;19.126;2022-09-12T07:03:18;21.80;49.00
7700;DHT22;3892;47.794;19.126;2022-09-12T07:05:45;21.80;49.20
7700;DHT22;3892;47.794;19.126;2022-09-12T07:08:14;21.90;49.70
7700;DHT22;3892;47.794;19.126;2022-09-12T07:10:41;22.00;48.70
7700;DHT22;3892;47.794;19.126;2022-09-12T07:13:08;22.00;48.30
7700;DHT22;3892;47.794;19.126;2022-09-12T07:15:36;22.10;49.60
7700;DHT22;3892;47.794;19.126;2022-09-12T07:18:03;22.00;48.90
7700;DHT22;3892;47.794;19.126;2022-09-12T07:20:30;22.10;48.50
7700;DHT22;3892;47.794;19.126;2022-09-12T07:23:01;22.20;48.20
7700;DHT22;3892;47.794;19.126;2022-09-12T07:25:28;22.10;48.60
7700;DHT22;3892;47.794;19.126;2022-09-12T07:27:54;22.00;48.70
7700;DHT22;3892;47.794;19.126;2022-09-12T07:30:21;22.00;48.00
7700;DHT22;3892;47.794;19.126;2022-09-12T07:32:52;22.10;48.20
7700;DHT22;3892;47.794;19.126;2022-09-12T07:35:19;22.20;48.80
7700;DHT22;3892;47.794;19.126;2022-09-12T07:37:46;22.30;48.40
7700;DHT22;3892;47.794;19.126;2022-09-12T07:40:13;22.40;48.00
7700;DHT22;3892;47.794;19.126;2022-09-12T07:42:40;22.50;47.70
7700;DHT22;3892;47.794;19.126;2022-09-12T07:45:08;22.60;47.80
7700;DHT22;3892;47.794;19.126;2022-09-12T07:47:38;22.60;49.00
7700;DHT22;3892;47.794;19.126;2022-09-12T07:50:07;22.70;47.60
7700;DHT22;3892;47.794;19.126;2022-09-12T07:52:34;22.70;48.00
7700;DHT22;3892;47.794;19.126;2022-09-12T07:55:01;22.80;48.20
7700;DHT22;3892;47.794;19.126;2022-09-12T07:57:28;22.80;48.80
7700;DHT22;3892;47.794;19.126;2022-09-12T07:59:55;22.90;47.40
7700;DHT22;3892;47.794;19.126;2022-09-12T08:02:22;22.90;47.30
7700;DHT22;3892;47.794;19.126;2022-09-12T08:04:49;23.10;47.20
7700;DHT22;3892;47.794;19.126;2022-09-12T08:07:17;23.10;46.80
7700;DHT22;3892;47.794;19.126;2022-09-12T08:09:44;23.10;46.40
7700;DHT22;3892;47.794;19.126;2022-09-12T08:12:12;23.20;47.40
7700;DHT22;3892;47.794;19.126;2022-09-12T08:14:39;23.20;47.10
7700;DHT22;3892;47.794;19.126;2022-09-12T08:17:06;23.40;47.00
7700;DHT22;3892;47.794;19.126;2022-09-12T08:19:33;23.40;46.20
7700;DHT22;3892;47.794;19.126;2022-09-12T08:22:00;23.50;46.40
7700;DHT22;3892;47.794;19.126;2022-09-12T08:24:29;23.50;46.00
7700;DHT22;3892;47.794;19.126;2022-09-12T08:26:59;23.70;45.60
7700;DHT22;3892;47.794;19.126;2022-09-12T08:29:26;23.70;45.30
7700;DHT22;3892;47.794;19.126;2022-09-12T08:31:52;23.80;46.00
7700;DHT22;3892;47.794;19.126;2022-09-12T08:34:19;23.80;45.20
7700;DHT22;3892;47.794;19.126;2022-09-12T08:36:46;23.90;45.10
7700;DHT22;3892;47.794;19.126;2022-09-12T08:39:13;23.90;45.80
7700;DHT22;3892;47.794;19.126;2022-09-12T08:41:43;24.00;46.40
7700;DHT22;3892;47.794;19.126;2022-09-12T08:44:34;24.20;45.70
7700;DHT22;3892;47.794;19.126;2022-09-12T08:47:18;24.30;44.30
7700;DHT22;3892;47.794;19.126;2022-09-12T08:50:02;24.40;44.40
7700;DHT22;3892;47.794;19.126;2022-09-12T08:52:34;24.40;45.20
7700;DHT22;3892;47.794;19.126;2022-09-12T08:55:23;24.40;44.00
7700;DHT22;3892;47.794;19.126;2022-09-12T08:57:54;24.40;44.00
7700;DHT22;3892;47.794;19.126;2022-09-12T09:00:21;24.40;43.00
7700;DHT22;3892;47.794;19.126;2022-09-12T09:03:03;24.40;42.20
7700;DHT22;3892;47.794;19.126;2022-09-12T09:05:44;24.50;42.50
7700;DHT22;3892;47.794;19.126;2022-09-12T09:08:29;24.50;43.70
7700;DHT22;3892;47.794;19.126;2022-09-12T09:11:08;24.60;43.40
7700;DHT22;3892;47.794;19.126;2022-09-12T09:13:50;24.70;43.70
7700;DHT22;3892;47.794;19.126;2022-09-12T09:16:37;24.80;43.20
7700;DHT22;3892;47.794;19.126;2022-09-12T09:19:09;24.90;41.90
7700;DHT22;3892;47.794;19.126;2022-09-12T09:21:42;25.00;42.30
7700;DHT22;3892;47.794;19.126;2022-09-12T09:24:13;25.00;42.10
7700;DHT22;3892;47.794;19.126;2022-09-12T09:26:45;25.00;42.30
7700;DHT22;3892;47.794;19.126;2022-09-12T09:29:18;25.00;42.20
7700;DHT22;3892;47.794;19.126;2022-09-12T09:31:48;25.00;43.30
7700;DHT22;3892;47.794;19.126;2022-09-12T09:34:19;25.00;41.30
7700;DHT22;3892;47.794;19.126;2022-09-12T09:36:50;25.00;41.50
7700;DHT22;3892;47.794;19.126;2022-09-12T09:39:25;25.00;41.70
7700;DHT22;3892;47.794;19.126;2022-09-12T09:42:04;25.00;41.60
7700;DHT22;3892;47.794;19.126;2022-09-12T09:44:36;25.00;42.60
7700;DHT22;3892;47.794;19.126;2022-09-12T09:47:03;25.20;42.40
7700;DHT22;3892;47.794;19.126;2022-09-12T09:49:33;25.30;42.30
7700;DHT22;3892;47.794;19.126;2022-09-12T09:52:01;25.40;41.90
7700;DHT22;3892;47.794;19.126;2022-09-12T09:54:32;25.40;41.70
7700;DHT22;3892;47.794;19.126;2022-09-12T09:57:00;25.40;40.70
7700;DHT22;3892;47.794;19.126;2022-09-12T09:59:31;25.40;41.00
7700;DHT22;3892;47.794;19.126;2022-09-12T10:02:02;25.50;41.00
7700;DHT22;3892;47.794;19.126;2022-09-12T10:04:31;25.50;41.10
7700;DHT22;3892;47.794;19.126;2022-09-12T10:07:00;25.50;41.00
7700;DHT22;3892;47.794;19.126;2022-09-12T10:09:29;25.60;40.80
7700;DHT22;3892;47.794;19.126;2022-09-12T10:11:58;25.60;39.80
7700;DHT22;3892;47.794;19.126;2022-09-12T10:14:29;25.60;40.20
7700;DHT22;3892;47.794;19.126;2022-09-12T10:16:56;25.60;41.30
7700;DHT22;3892;47.794;19.126;2022-09-12T10:19:34;25.50;40.60
7700;DHT22;3892;47.794;19.126;2022-09-12T10:22:02;25.50;40.50
7700;DHT22;3892;47.794;19.126;2022-09-12T10:24:31;25.50;40.80
7700;DHT22;3892;47.794;19.126;2022-09-12T10:27:07;25.50;40.40
7700;DHT22;3892;47.794;19.126;2022-09-12T10:29:39;25.50;40.30
7700;DHT22;3892;47.794;19.126;2022-09-12T10:32:09;25.50;39.80
7700;DHT22;3892;47.794;19.126;2022-09-12T10:34:42;25.50;39.80
7700;DHT22;3892;47.794;19.126;2022-09-12T10:37:17;25.60;40.10
7700;DHT22;3892;47.794;19.126;2022-09-12T10:39:50;25.70;41.20
7700;DHT22;3892;47.794;19.126;2022-09-12T10:42:46;25.80;40.80
7700;DHT22;3892;47.794;19.126;2022-09-12T10:45:25;26.00;41.60
7700;DHT22;3892;47.794;19.126;2022-09-12T10:47:55;26.00;41.00
7700;DHT22;3892;47.794;19.126;2022-09-12T10:50:27;26.10;39.30
7700;DHT22;3892;47.794;19.126;2022-09-12T10:52:55;26.10;39.80
7700;DHT22;3892;47.794;19.126;2022-09-12T10:55:40;26.10;40.10
7700;DHT22;3892;47.794;19.126;2022-09-12T10:58:21;26.10;40.00
7700;DHT22;3892;47.794;19.126;2022-09-12T11:00:57;26.10;40.50
7700;DHT22;3892;47.794;19.126;2022-09-12T11:03:42;26.00;38.90
7700;DHT22;3892;47.794;19.126;2022-09-12T11:06:14;25.90;38.90
7700;DHT22;3892;47.794;19.126;2022-09-12T11:08:51;25.80;40.20
7700;DHT22;3892;47.794;19.126;2022-09-12T11:11:32;25.80;39.90
7700;DHT22;3892;47.794;19.126;2022-09-12T11:14:12;25.70;41.10
7700;DHT22;3892;47.794;19.126;2022-09-12T11:16:50;25.70;40.90
7700;DHT22;3892;47.794;19.126;2022-09-12T11:19:35;25.60;40.80
7700;DHT22;3892;47.794;19.126;2022-09-12T11:22:18;25.60;40.90
7700;DHT22;3892;47.794;19.126;2022-09-12T11:25:11;25.50;40.70
7700;DHT22;3892;47.794;19.126;2022-09-12T11:27:56;25.40;40.40
7700;DHT22;3892;47.794;19.126;2022-09-12T11:30:25;25.40;40.80
7700;DHT22;3892;47.794;19.126;2022-09-12T11:33:09;25.40;40.30
7700;DHT22;3892;47.794;19.126;2022-09-12T11:35:42;25.40;41.30
7700;DHT22;3892;47.794;19.126;2022-09-12T11:38:24;25.30;41.00
7700;DHT22;3892;47.794;19.126;2022-09-12T11:40:54;25.30;40.40
7700;DHT22;3892;47.794;19.126;2022-09-12T11:43:28;25.30;40.20
7700;DHT22;3892;47.794;19.126;2022-09-12T11:46:04;25.30;40.10
7700;DHT22;3892;47.794;19.126;2022-09-12T11:48:39;25.40;41.40
7700;DHT22;3892;47.794;19.126;2022-09-12T11:51:15;25.60;41.30
7700;DHT22;3892;47.794;19.126;2022-09-12T11:53:53;25.70;40.40
7700;DHT22;3892;47.794;19.126;2022-09-12T11:56:23;25.90;40.20
7700;DHT22;3892;47.794;19.126;2022-09-12T11:58:56;26.10;41.00
7700;DHT22;3892;47.794;19.126;2022-09-12T12:01:27;26.30;40.00
7700;DHT22;3892;47.794;19.126;2022-09-12T12:04:00;26.50;39.40
7700;DHT22;3892;47.794;19.126;2022-09-12T12:06:34;26.80;39.30
7700;DHT22;3892;47.794;19.126;2022-09-12T12:09:05;27.00;39.50
7700;DHT22;3892;47.794;19.126;2022-09-12T12:11:37;27.20;38.10
7700;DHT22;3892;47.794;19.126;2022-09-12T12:14:11;27.40;38.20
7700;DHT22;3892;47.794;19.126;2022-09-12T12:16:40;27.60;39.00
7700;DHT22;3892;47.794;19.126;2022-09-12T12:19:30;27.80;37.50
7700;DHT22;3892;47.794;19.126;2022-09-12T12:22:07;28.10;36.90
7700;DHT22;3892;47.794;19.126;2022-09-12T12:25:07;28.30;37.40
7700;DHT22;3892;47.794;19.126;2022-09-12T12:27:51;28.50;35.90
7700;DHT22;3892;47.794;19.126;2022-09-12T12:33:51;28.50;33.70
7700;DHT22;3892;47.794;19.126;2022-09-12T12:36:33;28.50;33.30
7700;DHT22;3892;47.794;19.126;2022-09-12T12:49:06;28.70;34.50
7700;DHT22;3892;47.794;19.126;2022-09-12T12:54:28;28.80;34.10
7700;DHT22;3892;47.794;19.126;2022-09-12T12:57:04;28.90;33.50
7700;DHT22;3892;47.794;19.126;2022-09-12T12:59:32;28.80;34.10
7700;DHT22;3892;47.794;19.126;2022-09-12T13:01:59;28.80;33.40
7700;DHT22;3892;47.794;19.126;2022-09-12T13:04:29;28.80;33.10
7700;DHT22;3892;47.794;19.126;2022-09-12T13:07:01;28.90;33.60
7700;DHT22;3892;47.794;19.126;2022-09-12T13:09:32;28.90;33.20
7700;DHT22;3892;47.794;19.126;2022-09-12T13:12:03;29.00;33.60
7700;DHT22;3892;47.794;19.126;2022-09-12T13:14:46;29.00;33.20
7700;DHT22;3892;47.794;19.126;2022-09-12T13:17:17;29.00;32.70
7700;DHT22;3892;47.794;19.126;2022-09-12T13:19:47;29.10;34.40
7700;DHT22;3892;47.794;19.126;2022-09-12T13:22:15;29.10;32.90
7700;DHT22;3892;47.794;19.126;2022-09-12T13:24:43;29.20;32.40
7700;DHT22;3892;47.794;19.126;2022-09-12T13:27:17;29.20;32.20
7700;DHT22;3892;47.794;19.126;2022-09-12T13:29:44;29.20;33.10
7700;DHT22;3892;47.794;19.126;2022-09-12T13:32:11;29.30;32.40
7700;DHT22;3892;47.794;19.126;2022-09-12T13:34:50;29.30;32.90
7700;DHT22;3892;47.794;19.126;2022-09-12T13:37:29;29.40;32.50
7700;DHT22;3892;47.794;19.126;2022-09-12T13:43:03;29.40;32.70
7700;DHT22;3892;47.794;19.126;2022-09-12T13:45:35;29.40;33.30
7700;DHT22;3892;47.794;19.126;2022-09-12T13:48:05;29.40;32.80
7700;DHT22;3892;47.794;19.126;2022-09-12T13:50:41;29.40;33.10
7700;DHT22;3892;47.794;19.126;2022-09-12T13:53:13;29.50;32.70
7700;DHT22;3892;47.794;19.126;2022-09-12T13:55:44;29.50;32.60
7700;DHT22;3892;47.794;19.126;2022-09-12T13:58:18;29.50;32.50
7700;DHT22;3892;47.794;19.126;2022-09-12T14:00:45;29.50;32.70
7700;DHT22;3892;47.794;19.126;2022-09-12T14:03:26;29.50;32.80
7700;DHT22;3892;47.794;19.126;2022-09-12T14:06:12;29.50;33.10
7700;DHT22;3892;47.794;19.126;2022-09-12T14:08:44;29.50;32.10
7700;DHT22;3892;47.794;19.126;2022-09-12T14:11:19;29.50;31.60
7700;DHT22;3892;47.794;19.126;2022-09-12T14:13:46;29.50;32.90
7700;DHT22;3892;47.794;19.126;2022-09-12T14:16:13;29.50;32.40
7700;DHT22;3892;47.794;19.126;2022-09-12T14:18:41;29.50;32.20
7700;DHT22;3892;47.794;19.126;2022-09-12T14:21:14;29.50;32.50
7700;DHT22;3892;47.794;19.126;2022-09-12T14:23:48;29.50;32.20
7700;DHT22;3892;47.794;19.126;2022-09-12T14:26:15;29.50;32.10
7700;DHT22;3892;47.794;19.126;2022-09-12T14:28:44;29.50;32.30
7700;DHT22;3892;47.794;19.126;2022-09-12T14:31:22;29.40;31.50
7700;DHT22;3892;47.794;19.126;2022-09-12T14:33:51;29.40;31.80
7700;DHT22;3892;47.794;19.126;2022-09-12T14:36:24;29.40;32.30
7700;DHT22;3892;47.794;19.126;2022-09-12T14:38:54;29.40;32.00
7700;DHT22;3892;47.794;19.126;2022-09-12T14:41:25;29.40;32.30
7700;DHT22;3892;47.794;19.126;2022-09-12T14:43:55;29.40;32.30
7700;DHT22;3892;47.794;19.126;2022-09-12T14:46:29;29.50;32.70
7700;DHT22;3892;47.794;19.126;2022-09-12T14:48:59;29.50;32.50
7700;DHT22;3892;47.794;19.126;2022-09-12T14:51:32;29.50;32.80
7700;DHT22;3892;47.794;19.126;2022-09-12T14:54:00;29.40;31.10
7700;DHT22;3892;47.794;19.126;2022-09-12T14:56:38;29.40;30.90
7700;DHT22;3892;47.794;19.126;2022-09-12T14:59:28;29.20;31.00
7700;DHT22;3892;47.794;19.126;2022-09-12T15:02:20;29.10;31.10
7700;DHT22;3892;47.794;19.126;2022-09-12T15:04:49;29.00;31.20
7700;DHT22;3892;47.794;19.126;2022-09-12T15:07:28;28.90;31.20
7700;DHT22;3892;47.794;19.126;2022-09-12T15:09:57;28.90;32.00
7700;DHT22;3892;47.794;19.126;2022-09-12T15:12:25;28.70;31.10
7700;DHT22;3892;47.794;19.126;2022-09-12T15:14:52;28.60;31.20
7700;DHT22;3892;47.794;19.126;2022-09-12T15:17:19;28.50;30.90
7700;DHT22;3892;47.794;19.126;2022-09-12T15:19:46;28.40;31.30
7700;DHT22;3892;47.794;19.126;2022-09-12T15:22:13;28.40;31.60
7700;DHT22;3892;47.794;19.126;2022-09-12T15:24:41;28.40;31.60
7700;DHT22;3892;47.794;19.126;2022-09-12T15:27:09;28.30;31.60
7700;DHT22;3892;47.794;19.126;2022-09-12T15:29:36;28.30;32.30
7700;DHT22;3892;47.794;19.126;2022-09-12T15:32:03;28.40;31.90
7700;DHT22;3892;47.794;19.126;2022-09-12T15:34:30;28.30;31.80
7700;DHT22;3892;47.794;19.126;2022-09-12T15:36:57;28.30;31.80
7700;DHT22;3892;47.794;19.126;2022-09-12T15:39:24;28.40;33.20
7700;DHT22;3892;47.794;19.126;2022-09-12T15:41:53;28.40;32.50
7700;DHT22;3892;47.794;19.126;2022-09-12T15:44:20;28.30;32.60
7700;DHT22;3892;47.794;19.126;2022-09-12T15:46:48;28.30;32.10
7700;DHT22;3892;47.794;19.126;2022-09-12T15:49:15;28.30;32.30
7700;DHT22;3892;47.794;19.126;2022-09-12T15:51:41;28.20;33.30
7700;DHT22;3892;47.794;19.126;2022-09-12T15:54:10;28.20;32.20
7700;DHT22;3892;47.794;19.126;2022-09-12T15:56:39;28.20;33.10
7700;DHT22;3892;47.794;19.126;2022-09-12T15:59:07;28.10;32.30
7700;DHT22;3892;47.794;19.126;2022-09-12T16:01:34;28.10;32.10
7700;DHT22;3892;47.794;19.126;2022-09-12T16:04:01;28.00;32.20
7700;DHT22;3892;47.794;19.126;2022-09-12T16:06:28;28.00;32.00
7700;DHT22;3892;47.794;19.126;2022-09-12T16:08:58;28.00;32.20
7700;DHT22;3892;47.794;19.126;2022-09-12T16:11:26;28.00;32.40
7700;DHT22;3892;47.794;19.126;2022-09-12T16:13:54;27.90;32.20
7700;DHT22;3892;47.794;19.126;2022-09-12T16:16:22;27.90;32.40
7700;DHT22;3892;47.794;19.126;2022-09-12T16:18:49;27.90;32.60
7700;DHT22;3892;47.794;19.126;2022-09-12T16:21:16;27.90;32.90
7700;DHT22;3892;47.794;19.126;2022-09-12T16:23:44;27.80;32.80
7700;DHT22;3892;47.794;19.126;2022-09-12T16:26:11;27.80;32.80
7700;DHT22;3892;47.794;19.126;2022-09-12T16:28:38;27.70;33.10
7700;DHT22;3892;47.794;19.126;2022-09-12T16:31:07;27.70;32.90